sensor_id;sensor_type;location;lat;lon;timestamp;P1;durP1;ratioP1;P2;durP2;ratioP2
50350;SDS011;36250;48.740;22.174;2023-03-01T00:01:14;58.90;;;28.77;;
50350;SDS011;36250;48.740;22.174;2023-03-01T00:03:43;38.10;;;21.15;;
50350;SDS011;36250;48.740;22.174;2023-03-01T00:06:09;32.40;;;16.75;;
50350;SDS011;36250;48.740;22.174;2023-03-01T00:08:35;28.63;;;16.35;;
50350;SDS011;36250;48.740;22.174;2023-03-01T00:11:04;26.85;;;14.18;;
50350;SDS011;36250;48.740;22.174;2023-03-01T00:13:32;23.00;;;13.23;;
50350;SDS011;36250;48.740;22.174;2023-03-01T00:15:58;23.25;;;13.23;;
50350;SDS011;36250;48.740;22.174;2023-03-01T00:18:26;25.33;;;14.60;;
50350;SDS011;36250;48.740;22.174;2023-03-01T00:20:51;26.02;;;14.00;;
50350;SDS011;36250;48.740;22.174;2023-03-01T00:23:18;23.23;;;13.68;;
50350;SDS011;36250;48.740;22.174;2023-03-01T00:25:43;40.13;;;21.40;;
50350;SDS011;36250;48.740;22.174;2023-03-01T00:28:09;22.77;;;12.60;;
50350;SDS011;36250;48.740;22.174;2023-03-01T00:30:34;18.92;;;11.02;;
50350;SDS011;36250;48.740;22.174;2023-03-01T00:32:59;20.20;;;11.60;;
50350;SDS011;36250;48.740;22.174;2023-03-01T00:35:25;21.65;;;12.52;;
50350;SDS011;36250;48.740;22.174;2023-03-01T00:37:50;21.33;;;11.07;;
50350;SDS011;36250;48.740;22.174;2023-03-01T00:40:22;18.00;;;11.65;;
50350;SDS011;36250;48.740;22.174;2023-03-01T00:42:54;19.73;;;11.40;;
50350;SDS011;36250;48.740;22.174;2023-03-01T00:45:20;18.38;;;10.82;;
50350;SDS011;36250;48.740;22.174;2023-03-01T00:47:45;20.13;;;12.43;;
50350;SDS011;36250;48.740;22.174;2023-03-01T00:50:11;22.70;;;13.10;;
50350;SDS011;36250;48.740;22.174;2023-03-01T00:52:37;31.20;;;17.45;;
50350;SDS011;36250;48.740;22.174;2023-03-01T00:55:03;42.72;;;20.60;;
50350;SDS011;36250;48.740;22.174;2023-03-01T00:57:29;34.38;;;18.52;;
50350;SDS011;36250;48.740;22.174;2023-03-01T00:59:55;49.15;;;23.95;;
50350;SDS011;36250;48.740;22.174;2023-03-01T01:02:21;23.42;;;13.45;;
50350;SDS011;36250;48.740;22.174;2023-03-01T01:04:47;21.02;;;12.55;;
50350;SDS011;36250;48.740;22.174;2023-03-01T01:07:12;19.65;;;11.23;;
50350;SDS011;36250;48.740;22.174;2023-03-01T01:09:38;20.00;;;11.93;;
50350;SDS011;36250;48.740;22.174;2023-03-01T01:12:04;23.65;;;12.90;;
50350;SDS011;36250;48.740;22.174;2023-03-01T01:14:30;22.85;;;13.60;;
50350;SDS011;36250;48.740;22.174;2023-03-01T01:16:55;20.25;;;12.77;;
50350;SDS011;36250;48.740;22.174;2023-03-01T01:19:21;17.95;;;11.85;;
50350;SDS011;36250;48.740;22.174;2023-03-01T01:21:47;22.75;;;12.32;;
50350;SDS011;36250;48.740;22.174;2023-03-01T01:24:13;21.38;;;12.60;;
50350;SDS011;36250;48.740;22.174;2023-03-01T01:26:39;20.48;;;11.85;;
50350;SDS011;36250;48.740;22.174;2023-03-01T01:29:05;25.05;;;13.25;;
50350;SDS011;36250;48.740;22.174;2023-03-01T01:31:32;23.27;;;13.27;;
50350;SDS011;36250;48.740;22.174;2023-03-01T01:33:58;23.80;;;14.40;;
50350;SDS011;36250;48.740;22.174;2023-03-01T01:36:25;27.23;;;14.73;;
50350;SDS011;36250;48.740;22.174;2023-03-01T01:38:50;27.83;;;13.75;;
50350;SDS011;36250;48.740;22.174;2023-03-01T01:41:16;26.75;;;15.57;;
50350;SDS011;36250;48.740;22.174;2023-03-01T01:43:44;26.38;;;14.95;;
50350;SDS011;36250;48.740;22.174;2023-03-01T01:46:30;26.88;;;14.60;;
50350;SDS011;36250;48.740;22.174;2023-03-01T01:48:58;57.35;;;27.55;;
50350;SDS011;36250;48.740;22.174;2023-03-01T01:51:37;71.35;;;30.95;;
50350;SDS011;36250;48.740;22.174;2023-03-01T01:54:07;30.75;;;16.42;;
50350;SDS011;36250;48.740;22.174;2023-03-01T01:56:37;27.05;;;14.10;;
50350;SDS011;36250;48.740;22.174;2023-03-01T01:59:07;27.40;;;15.10;;
50350;SDS011;36250;48.740;22.174;2023-03-01T02:01:33;27.63;;;14.45;;
50350;SDS011;36250;48.740;22.174;2023-03-01T02:03:59;31.65;;;16.02;;
50350;SDS011;36250;48.740;22.174;2023-03-01T02:06:26;37.47;;;20.05;;
50350;SDS011;36250;48.740;22.174;2023-03-01T02:08:59;29.90;;;16.80;;
50350;SDS011;36250;48.740;22.174;2023-03-01T02:11:27;32.88;;;16.42;;
50350;SDS011;36250;48.740;22.174;2023-03-01T02:13:54;22.23;;;12.57;;
50350;SDS011;36250;48.740;22.174;2023-03-01T02:16:20;21.58;;;13.20;;
50350;SDS011;36250;48.740;22.174;2023-03-01T02:18:45;21.77;;;12.57;;
50350;SDS011;36250;48.740;22.174;2023-03-01T02:23:51;24.50;;;13.07;;
50350;SDS011;36250;48.740;22.174;2023-03-01T02:26:23;26.88;;;13.18;;
50350;SDS011;36250;48.740;22.174;2023-03-01T02:29:07;26.20;;;14.20;;
50350;SDS011;36250;48.740;22.174;2023-03-01T02:31:33;23.23;;;13.38;;
50350;SDS011;36250;48.740;22.174;2023-03-01T02:34:11;25.83;;;14.05;;
50350;SDS011;36250;48.740;22.174;2023-03-01T02:36:49;24.97;;;13.83;;
50350;SDS011;36250;48.740;22.174;2023-03-01T02:39:20;28.13;;;15.20;;
50350;SDS011;36250;48.740;22.174;2023-03-01T02:41:57;24.52;;;13.80;;
50350;SDS011;36250;48.740;22.174;2023-03-01T02:44:25;27.35;;;14.38;;
50350;SDS011;36250;48.740;22.174;2023-03-01T02:46:51;24.52;;;14.60;;
50350;SDS011;36250;48.740;22.174;2023-03-01T02:52:11;25.30;;;14.05;;
50350;SDS011;36250;48.740;22.174;2023-03-01T02:55:11;23.42;;;13.90;;
50350;SDS011;36250;48.740;22.174;2023-03-01T02:57:43;25.95;;;14.35;;
50350;SDS011;36250;48.740;22.174;2023-03-01T03:00:15;28.08;;;14.55;;
50350;SDS011;36250;48.740;22.174;2023-03-01T03:02:47;27.38;;;15.43;;
50350;SDS011;36250;48.740;22.174;2023-03-01T03:05:18;26.92;;;14.27;;
50350;SDS011;36250;48.740;22.174;2023-03-01T03:07:45;26.73;;;13.60;;
50350;SDS011;36250;48.740;22.174;2023-03-01T03:10:13;26.02;;;13.77;;
50350;SDS011;36250;48.740;22.174;2023-03-01T03:12:42;26.55;;;13.48;;
50350;SDS011;36250;48.740;22.174;2023-03-01T03:15:08;23.65;;;14.48;;
50350;SDS011;36250;48.740;22.174;2023-03-01T03:17:38;31.35;;;16.83;;
50350;SDS011;36250;48.740;22.174;2023-03-01T03:20:06;34.83;;;20.33;;
50350;SDS011;36250;48.740;22.174;2023-03-01T03:22:37;33.65;;;19.58;;
50350;SDS011;36250;48.740;22.174;2023-03-01T03:25:04;35.15;;;19.77;;
50350;SDS011;36250;48.740;22.174;2023-03-01T03:27:30;29.17;;;17.15;;
50350;SDS011;36250;48.740;22.174;2023-03-01T03:29:56;32.65;;;16.90;;
50350;SDS011;36250;48.740;22.174;2023-03-01T03:32:22;27.73;;;16.98;;
50350;SDS011;36250;48.740;22.174;2023-03-01T03:34:47;29.80;;;15.43;;
50350;SDS011;36250;48.740;22.174;2023-03-01T03:37:14;25.15;;;15.38;;
50350;SDS011;36250;48.740;22.174;2023-03-01T03:39:59;30.23;;;15.18;;
50350;SDS011;36250;48.740;22.174;2023-03-01T03:42:24;28.23;;;15.50;;
50350;SDS011;36250;48.740;22.174;2023-03-01T03:44:50;29.23;;;17.15;;
50350;SDS011;36250;48.740;22.174;2023-03-01T03:47:15;35.33;;;17.77;;
50350;SDS011;36250;48.740;22.174;2023-03-01T03:49:40;32.72;;;17.80;;
50350;SDS011;36250;48.740;22.174;2023-03-01T03:52:06;29.77;;;16.75;;
50350;SDS011;36250;48.740;22.174;2023-03-01T03:54:38;34.97;;;17.65;;
50350;SDS011;36250;48.740;22.174;2023-03-01T03:57:04;36.60;;;18.60;;
50350;SDS011;36250;48.740;22.174;2023-03-01T03:59:30;31.25;;;17.33;;
50350;SDS011;36250;48.740;22.174;2023-03-01T04:04:49;31.13;;;16.02;;
50350;SDS011;36250;48.740;22.174;2023-03-01T04:07:15;34.15;;;19.95;;
50350;SDS011;36250;48.740;22.174;2023-03-01T04:13:05;33.95;;;17.92;;
50350;SDS011;36250;48.740;22.174;2023-03-01T04:15:33;35.85;;;20.10;;
50350;SDS011;36250;48.740;22.174;2023-03-01T04:17:59;43.85;;;22.15;;
50350;SDS011;36250;48.740;22.174;2023-03-01T04:20:25;38.28;;;19.65;;
50350;SDS011;36250;48.740;22.174;2023-03-01T04:22:57;34.88;;;19.50;;
50350;SDS011;36250;48.740;22.174;2023-03-01T04:25:22;32.25;;;18.52;;
50350;SDS011;36250;48.740;22.174;2023-03-01T04:27:49;35.78;;;20.15;;
50350;SDS011;36250;48.740;22.174;2023-03-01T04:30:14;38.72;;;22.02;;
50350;SDS011;36250;48.740;22.174;2023-03-01T04:32:39;38.88;;;22.52;;
50350;SDS011;36250;48.740;22.174;2023-03-01T04:35:05;38.05;;;20.60;;
50350;SDS011;36250;48.740;22.174;2023-03-01T04:37:30;38.65;;;20.98;;
50350;SDS011;36250;48.740;22.174;2023-03-01T04:39:56;34.22;;;20.17;;
50350;SDS011;36250;48.740;22.174;2023-03-01T04:42:21;32.67;;;19.45;;
50350;SDS011;36250;48.740;22.174;2023-03-01T04:44:46;31.90;;;17.73;;
50350;SDS011;36250;48.740;22.174;2023-03-01T04:47:12;37.72;;;18.42;;
50350;SDS011;36250;48.740;22.174;2023-03-01T04:49:37;38.17;;;20.35;;
50350;SDS011;36250;48.740;22.174;2023-03-01T04:52:03;44.60;;;20.75;;
50350;SDS011;36250;48.740;22.174;2023-03-01T04:54:32;42.88;;;22.42;;
50350;SDS011;36250;48.740;22.174;2023-03-01T04:57:00;39.25;;;21.50;;
50350;SDS011;36250;48.740;22.174;2023-03-01T04:59:26;37.88;;;21.63;;
50350;SDS011;36250;48.740;22.174;2023-03-01T05:01:53;39.63;;;20.83;;
50350;SDS011;36250;48.740;22.174;2023-03-01T05:04:21;39.22;;;19.42;;
50350;SDS011;36250;48.740;22.174;2023-03-01T05:06:47;33.92;;;18.55;;
50350;SDS011;36250;48.740;22.174;2023-03-01T05:09:12;32.33;;;18.67;;
50350;SDS011;36250;48.740;22.174;2023-03-01T05:11:38;32.97;;;18.35;;
50350;SDS011;36250;48.740;22.174;2023-03-01T05:14:04;39.13;;;20.55;;
50350;SDS011;36250;48.740;22.174;2023-03-01T05:16:30;40.35;;;22.05;;
50350;SDS011;36250;48.740;22.174;2023-03-01T05:18:56;44.72;;;22.35;;
50350;SDS011;36250;48.740;22.174;2023-03-01T05:21:22;43.40;;;23.00;;
50350;SDS011;36250;48.740;22.174;2023-03-01T05:23:47;34.85;;;18.35;;
50350;SDS011;36250;48.740;22.174;2023-03-01T05:26:13;33.95;;;19.60;;
50350;SDS011;36250;48.740;22.174;2023-03-01T05:28:42;27.60;;;17.25;;
50350;SDS011;36250;48.740;22.174;2023-03-01T05:31:07;27.25;;;15.73;;
50350;SDS011;36250;48.740;22.174;2023-03-01T05:33:37;29.52;;;17.05;;
50350;SDS011;36250;48.740;22.174;2023-03-01T05:36:04;30.95;;;15.82;;
50350;SDS011;36250;48.740;22.174;2023-03-01T05:38:31;29.85;;;15.45;;
50350;SDS011;36250;48.740;22.174;2023-03-01T05:40:56;41.28;;;21.75;;
50350;SDS011;36250;48.740;22.174;2023-03-01T05:43:21;32.08;;;16.95;;
50350;SDS011;36250;48.740;22.174;2023-03-01T05:45:47;30.90;;;17.63;;
50350;SDS011;36250;48.740;22.174;2023-03-01T05:48:12;32.63;;;17.95;;
50350;SDS011;36250;48.740;22.174;2023-03-01T05:50:39;33.20;;;18.15;;
50350;SDS011;36250;48.740;22.174;2023-03-01T05:53:11;38.42;;;20.88;;
50350;SDS011;36250;48.740;22.174;2023-03-01T05:55:37;48.00;;;24.52;;
50350;SDS011;36250;48.740;22.174;2023-03-01T05:58:04;30.92;;;18.40;;
50350;SDS011;36250;48.740;22.174;2023-03-01T06:00:32;26.55;;;15.07;;
50350;SDS011;36250;48.740;22.174;2023-03-01T06:02:58;23.90;;;14.45;;
50350;SDS011;36250;48.740;22.174;2023-03-01T06:05:25;25.23;;;14.73;;
50350;SDS011;36250;48.740;22.174;2023-03-01T06:07:51;50.03;;;24.83;;
50350;SDS011;36250;48.740;22.174;2023-03-01T06:10:17;36.70;;;20.15;;
50350;SDS011;36250;48.740;22.174;2023-03-01T06:12:43;34.90;;;19.65;;
50350;SDS011;36250;48.740;22.174;2023-03-01T06:15:09;45.88;;;19.70;;
50350;SDS011;36250;48.740;22.174;2023-03-01T06:17:37;31.83;;;18.48;;
50350;SDS011;36250;48.740;22.174;2023-03-01T06:20:06;35.38;;;19.10;;
50350;SDS011;36250;48.740;22.174;2023-03-01T06:22:36;35.42;;;19.92;;
50350;SDS011;36250;48.740;22.174;2023-03-01T06:25:02;31.60;;;19.15;;
50350;SDS011;36250;48.740;22.174;2023-03-01T06:27:28;40.75;;;24.10;;
50350;SDS011;36250;48.740;22.174;2023-03-01T06:29:53;58.13;;;29.30;;
50350;SDS011;36250;48.740;22.174;2023-03-01T06:32:18;45.10;;;25.10;;
50350;SDS011;36250;48.740;22.174;2023-03-01T06:34:44;32.35;;;18.30;;
50350;SDS011;36250;48.740;22.174;2023-03-01T06:37:09;28.75;;;16.95;;
50350;SDS011;36250;48.740;22.174;2023-03-01T06:39:35;29.77;;;19.50;;
50350;SDS011;36250;48.740;22.174;2023-03-01T06:42:00;31.25;;;18.77;;
50350;SDS011;36250;48.740;22.174;2023-03-01T06:44:25;28.25;;;17.10;;
50350;SDS011;36250;48.740;22.174;2023-03-01T06:46:51;27.75;;;15.70;;
50350;SDS011;36250;48.740;22.174;2023-03-01T06:49:17;28.25;;;16.00;;
50350;SDS011;36250;48.740;22.174;2023-03-01T06:51:43;28.50;;;15.90;;
50350;SDS011;36250;48.740;22.174;2023-03-01T06:54:09;27.00;;;16.23;;
50350;SDS011;36250;48.740;22.174;2023-03-01T06:56:34;26.33;;;15.18;;
50350;SDS011;36250;48.740;22.174;2023-03-01T06:59:00;27.30;;;16.98;;
50350;SDS011;36250;48.740;22.174;2023-03-01T07:01:25;27.00;;;16.30;;
50350;SDS011;36250;48.740;22.174;2023-03-01T07:03:51;27.23;;;16.63;;
50350;SDS011;36250;48.740;22.174;2023-03-01T07:06:16;26.02;;;16.85;;
50350;SDS011;36250;48.740;22.174;2023-03-01T07:08:42;29.30;;;16.95;;
50350;SDS011;36250;48.740;22.174;2023-03-01T07:11:08;27.77;;;16.75;;
50350;SDS011;36250;48.740;22.174;2023-03-01T07:13:33;27.17;;;15.57;;
50350;SDS011;36250;48.740;22.174;2023-03-01T07:15:59;27.05;;;16.35;;
50350;SDS011;36250;48.740;22.174;2023-03-01T07:18:24;38.03;;;22.48;;
50350;SDS011;36250;48.740;22.174;2023-03-01T07:20:49;33.10;;;19.92;;
50350;SDS011;36250;48.740;22.174;2023-03-01T07:23:15;24.65;;;15.45;;
50350;SDS011;36250;48.740;22.174;2023-03-01T07:25:40;25.40;;;14.63;;
50350;SDS011;36250;48.740;22.174;2023-03-01T07:28:05;25.52;;;15.50;;
50350;SDS011;36250;48.740;22.174;2023-03-01T07:30:31;27.60;;;15.75;;
50350;SDS011;36250;48.740;22.174;2023-03-01T07:32:57;23.85;;;14.32;;
50350;SDS011;36250;48.740;22.174;2023-03-01T07:35:23;28.77;;;15.98;;
50350;SDS011;36250;48.740;22.174;2023-03-01T07:37:50;22.33;;;13.25;;
50350;SDS011;36250;48.740;22.174;2023-03-01T07:40:15;27.33;;;14.88;;
50350;SDS011;36250;48.740;22.174;2023-03-01T07:42:41;26.75;;;16.70;;
50350;SDS011;36250;48.740;22.174;2023-03-01T07:45:06;25.83;;;15.57;;
50350;SDS011;36250;48.740;22.174;2023-03-01T07:47:32;22.77;;;14.80;;
50350;SDS011;36250;48.740;22.174;2023-03-01T07:49:57;23.45;;;13.70;;
50350;SDS011;36250;48.740;22.174;2023-03-01T07:52:23;24.20;;;14.10;;
50350;SDS011;36250;48.740;22.174;2023-03-01T07:54:48;22.65;;;14.73;;
50350;SDS011;36250;48.740;22.174;2023-03-01T07:57:13;22.75;;;13.55;;
50350;SDS011;36250;48.740;22.174;2023-03-01T07:59:39;21.02;;;13.10;;
50350;SDS011;36250;48.740;22.174;2023-03-01T08:02:04;23.23;;;13.85;;
50350;SDS011;36250;48.740;22.174;2023-03-01T08:04:31;21.08;;;14.18;;
50350;SDS011;36250;48.740;22.174;2023-03-01T08:06:57;19.27;;;12.20;;
50350;SDS011;36250;48.740;22.174;2023-03-01T08:09:23;21.25;;;13.05;;
50350;SDS011;36250;48.740;22.174;2023-03-01T08:11:49;17.20;;;11.75;;
50350;SDS011;36250;48.740;22.174;2023-03-01T08:14:14;20.90;;;14.43;;
50350;SDS011;36250;48.740;22.174;2023-03-01T08:16:39;21.45;;;14.10;;
50350;SDS011;36250;48.740;22.174;2023-03-01T08:19:08;21.40;;;13.45;;
50350;SDS011;36250;48.740;22.174;2023-03-01T08:21:35;22.42;;;12.27;;
50350;SDS011;36250;48.740;22.174;2023-03-01T08:24:01;20.92;;;12.50;;
50350;SDS011;36250;48.740;22.174;2023-03-01T08:26:30;20.10;;;12.38;;
50350;SDS011;36250;48.740;22.174;2023-03-01T08:28:56;27.33;;;14.32;;
50350;SDS011;36250;48.740;22.174;2023-03-01T08:31:23;18.98;;;12.63;;
50350;SDS011;36250;48.740;22.174;2023-03-01T08:33:54;22.50;;;13.25;;
50350;SDS011;36250;48.740;22.174;2023-03-01T08:36:28;32.55;;;18.98;;
50350;SDS011;36250;48.740;22.174;2023-03-01T08:38:58;21.02;;;12.65;;
50350;SDS011;36250;48.740;22.174;2023-03-01T08:41:23;16.30;;;10.65;;
50350;SDS011;36250;48.740;22.174;2023-03-01T08:43:49;20.65;;;10.82;;
50350;SDS011;36250;48.740;22.174;2023-03-01T08:46:14;31.20;;;19.27;;
50350;SDS011;36250;48.740;22.174;2023-03-01T08:48:40;18.10;;;12.00;;
50350;SDS011;36250;48.740;22.174;2023-03-01T08:51:11;15.70;;;10.60;;
50350;SDS011;36250;48.740;22.174;2023-03-01T08:53:41;15.10;;;10.10;;
50350;SDS011;36250;48.740;22.174;2023-03-01T08:56:07;17.05;;;9.60;;
50350;SDS011;36250;48.740;22.174;2023-03-01T08:58:34;18.45;;;11.65;;
50350;SDS011;36250;48.740;22.174;2023-03-01T09:00:59;30.45;;;20.38;;
50350;SDS011;36250;48.740;22.174;2023-03-01T09:03:25;18.05;;;11.20;;
50350;SDS011;36250;48.740;22.174;2023-03-01T09:05:51;17.50;;;10.25;;
50350;SDS011;36250;48.740;22.174;2023-03-01T09:08:17;19.50;;;10.23;;
50350;SDS011;36250;48.740;22.174;2023-03-01T09:10:43;14.32;;;9.63;;
50350;SDS011;36250;48.740;22.174;2023-03-01T09:13:09;14.73;;;10.10;;
50350;SDS011;36250;48.740;22.174;2023-03-01T09:15:36;15.30;;;9.32;;
50350;SDS011;36250;48.740;22.174;2023-03-01T09:18:02;21.00;;;13.23;;
50350;SDS011;36250;48.740;22.174;2023-03-01T09:20:27;18.73;;;11.15;;
50350;SDS011;36250;48.740;22.174;2023-03-01T09:22:53;15.85;;;9.57;;
50350;SDS011;36250;48.740;22.174;2023-03-01T09:25:18;16.48;;;10.80;;
50350;SDS011;36250;48.740;22.174;2023-03-01T09:27:43;15.35;;;9.05;;
50350;SDS011;36250;48.740;22.174;2023-03-01T09:30:09;20.05;;;9.95;;
50350;SDS011;36250;48.740;22.174;2023-03-01T09:32:35;14.40;;;9.32;;
50350;SDS011;36250;48.740;22.174;2023-03-01T09:35:00;15.40;;;8.43;;
50350;SDS011;36250;48.740;22.174;2023-03-01T09:37:26;12.90;;;8.85;;
50350;SDS011;36250;48.740;22.174;2023-03-01T09:39:52;14.05;;;9.35;;
50350;SDS011;36250;48.740;22.174;2023-03-01T09:42:17;13.07;;;8.52;;
50350;SDS011;36250;48.740;22.174;2023-03-01T09:44:54;18.77;;;11.35;;
50350;SDS011;36250;48.740;22.174;2023-03-01T09:47:26;15.05;;;9.10;;
50350;SDS011;36250;48.740;22.174;2023-03-01T09:52:48;14.60;;;9.02;;
50350;SDS011;36250;48.740;22.174;2023-03-01T09:55:44;15.45;;;9.40;;
50350;SDS011;36250;48.740;22.174;2023-03-01T10:01:10;14.00;;;9.23;;
50350;SDS011;36250;48.740;22.174;2023-03-01T10:06:46;13.27;;;9.13;;
50350;SDS011;36250;48.740;22.174;2023-03-01T10:09:23;15.43;;;10.73;;
50350;SDS011;36250;48.740;22.174;2023-03-01T10:11:49;18.52;;;12.32;;
50350;SDS011;36250;48.740;22.174;2023-03-01T10:16:50;13.93;;;9.52;;
50350;SDS011;36250;48.740;22.174;2023-03-01T10:22:03;17.30;;;8.68;;
50350;SDS011;36250;48.740;22.174;2023-03-01T10:24:38;10.90;;;7.40;;
50350;SDS011;36250;48.740;22.174;2023-03-01T10:27:09;16.33;;;11.80;;
50350;SDS011;36250;48.740;22.174;2023-03-01T10:32:45;9.32;;;7.65;;
50350;SDS011;36250;48.740;22.174;2023-03-01T10:35:17;11.20;;;7.60;;
50350;SDS011;36250;48.740;22.174;2023-03-01T10:40:31;8.70;;;7.13;;
50350;SDS011;36250;48.740;22.174;2023-03-01T10:42:58;11.63;;;7.90;;
50350;SDS011;36250;48.740;22.174;2023-03-01T10:48:11;10.85;;;7.20;;
50350;SDS011;36250;48.740;22.174;2023-03-01T10:50:38;11.93;;;8.13;;
50350;SDS011;36250;48.740;22.174;2023-03-01T10:53:10;17.98;;;10.18;;
50350;SDS011;36250;48.740;22.174;2023-03-01T10:55:42;13.02;;;9.70;;
50350;SDS011;36250;48.740;22.174;2023-03-01T10:58:15;12.10;;;8.70;;
50350;SDS011;36250;48.740;22.174;2023-03-01T11:00:51;11.45;;;7.25;;
50350;SDS011;36250;48.740;22.174;2023-03-01T11:03:22;10.18;;;7.30;;
50350;SDS011;36250;48.740;22.174;2023-03-01T11:08:48;17.08;;;11.02;;
50350;SDS011;36250;48.740;22.174;2023-03-01T11:13:59;10.80;;;5.97;;
50350;SDS011;36250;48.740;22.174;2023-03-01T11:16:47;8.68;;;6.43;;
50350;SDS011;36250;48.740;22.174;2023-03-01T11:21:47;8.65;;;5.78;;
50350;SDS011;36250;48.740;22.174;2023-03-01T11:24:38;9.68;;;6.20;;
50350;SDS011;36250;48.740;22.174;2023-03-01T11:29:42;9.35;;;6.30;;
50350;SDS011;36250;48.740;22.174;2023-03-01T11:32:12;8.25;;;6.18;;
50350;SDS011;36250;48.740;22.174;2023-03-01T11:40:17;10.30;;;7.35;;
50350;SDS011;36250;48.740;22.174;2023-03-01T11:54:18;9.65;;;6.55;;
50350;SDS011;36250;48.740;22.174;2023-03-01T11:56:57;11.93;;;7.70;;
50350;SDS011;36250;48.740;22.174;2023-03-01T12:16:20;5.68;;;4.72;;
50350;SDS011;36250;48.740;22.174;2023-03-01T12:30:09;5.47;;;4.27;;
50350;SDS011;36250;48.740;22.174;2023-03-01T12:36:27;8.60;;;5.57;;
50350;SDS011;36250;48.740;22.174;2023-03-01T12:44:10;5.13;;;4.63;;
50350;SDS011;36250;48.740;22.174;2023-03-01T12:46:49;8.65;;;5.55;;
50350;SDS011;36250;48.740;22.174;2023-03-01T12:55:00;7.07;;;4.60;;
50350;SDS011;36250;48.740;22.174;2023-03-01T13:02:56;5.05;;;4.55;;
50350;SDS011;36250;48.740;22.174;2023-03-01T13:11:28;8.80;;;7.35;;
50350;SDS011;36250;48.740;22.174;2023-03-01T13:16:50;7.75;;;6.43;;
50350;SDS011;36250;48.740;22.174;2023-03-01T13:21:42;5.07;;;4.67;;
50350;SDS011;36250;48.740;22.174;2023-03-01T13:29:45;5.03;;;4.57;;
50350;SDS011;36250;48.740;22.174;2023-03-01T13:34:56;4.20;;;3.90;;
50350;SDS011;36250;48.740;22.174;2023-03-01T13:37:48;6.50;;;4.45;;
50350;SDS011;36250;48.740;22.174;2023-03-01T13:42:45;5.70;;;4.50;;
50350;SDS011;36250;48.740;22.174;2023-03-01T13:51:03;4.65;;;4.25;;
50350;SDS011;36250;48.740;22.174;2023-03-01T13:53:31;4.70;;;4.30;;
50350;SDS011;36250;48.740;22.174;2023-03-01T13:56:02;6.95;;;4.00;;
50350;SDS011;36250;48.740;22.174;2023-03-01T13:58:51;4.43;;;4.03;;
50350;SDS011;36250;48.740;22.174;2023-03-01T14:03:46;3.90;;;3.45;;
50350;SDS011;36250;48.740;22.174;2023-03-01T14:06:13;4.57;;;4.18;;
50350;SDS011;36250;48.740;22.174;2023-03-01T14:08:46;8.60;;;5.20;;
50350;SDS011;36250;48.740;22.174;2023-03-01T14:16:31;4.53;;;4.03;;
50350;SDS011;36250;48.740;22.174;2023-03-01T14:21:37;5.70;;;5.20;;
50350;SDS011;36250;48.740;22.174;2023-03-01T14:24:03;11.52;;;8.68;;
50350;SDS011;36250;48.740;22.174;2023-03-01T14:26:28;17.88;;;14.05;;
50350;SDS011;36250;48.740;22.174;2023-03-01T14:28:56;11.60;;;8.38;;
50350;SDS011;36250;48.740;22.174;2023-03-01T14:31:39;4.13;;;3.83;;
50350;SDS011;36250;48.740;22.174;2023-03-01T14:34:05;6.03;;;5.40;;
50350;SDS011;36250;48.740;22.174;2023-03-01T14:36:32;6.50;;;5.05;;
50350;SDS011;36250;48.740;22.174;2023-03-01T14:38:58;17.70;;;13.20;;
50350;SDS011;36250;48.740;22.174;2023-03-01T14:41:29;7.00;;;5.82;;
50350;SDS011;36250;48.740;22.174;2023-03-01T14:43:59;4.78;;;4.30;;
50350;SDS011;36250;48.740;22.174;2023-03-01T14:49:13;6.38;;;5.57;;
50350;SDS011;36250;48.740;22.174;2023-03-01T14:51:42;5.70;;;5.20;;
50350;SDS011;36250;48.740;22.174;2023-03-01T14:54:20;7.43;;;4.28;;
50350;SDS011;36250;48.740;22.174;2023-03-01T14:56:58;6.85;;;5.40;;
50350;SDS011;36250;48.740;22.174;2023-03-01T14:59:25;7.68;;;4.30;;
50350;SDS011;36250;48.740;22.174;2023-03-01T15:01:51;8.73;;;6.15;;
50350;SDS011;36250;48.740;22.174;2023-03-01T15:04:18;12.07;;;7.28;;
50350;SDS011;36250;48.740;22.174;2023-03-01T15:06:45;8.27;;;6.60;;
50350;SDS011;36250;48.740;22.174;2023-03-01T15:09:12;4.75;;;3.40;;
50350;SDS011;36250;48.740;22.174;2023-03-01T15:11:41;9.15;;;4.68;;
50350;SDS011;36250;48.740;22.174;2023-03-01T15:17:19;5.40;;;4.28;;
50350;SDS011;36250;48.740;22.174;2023-03-01T15:19:46;7.18;;;5.40;;
50350;SDS011;36250;48.740;22.174;2023-03-01T15:22:14;6.55;;;4.30;;
50350;SDS011;36250;48.740;22.174;2023-03-01T15:24:41;3.60;;;3.30;;
50350;SDS011;36250;48.740;22.174;2023-03-01T15:27:18;4.15;;;2.70;;
50350;SDS011;36250;48.740;22.174;2023-03-01T15:29:47;3.05;;;2.67;;
50350;SDS011;36250;48.740;22.174;2023-03-01T15:34:49;2.97;;;2.67;;
50350;SDS011;36250;48.740;22.174;2023-03-01T15:42:56;12.20;;;7.50;;
50350;SDS011;36250;48.740;22.174;2023-03-01T15:45:29;21.70;;;11.35;;
50350;SDS011;36250;48.740;22.174;2023-03-01T15:48:02;25.45;;;12.95;;
50350;SDS011;36250;48.740;22.174;2023-03-01T15:50:31;14.17;;;9.00;;
50350;SDS011;36250;48.740;22.174;2023-03-01T15:52:59;26.45;;;12.27;;
50350;SDS011;36250;48.740;22.174;2023-03-01T15:55:27;25.10;;;12.90;;
50350;SDS011;36250;48.740;22.174;2023-03-01T15:58:00;7.93;;;4.30;;
50350;SDS011;36250;48.740;22.174;2023-03-01T16:03:03;13.13;;;6.78;;
50350;SDS011;36250;48.740;22.174;2023-03-01T16:05:30;19.23;;;8.10;;
50350;SDS011;36250;48.740;22.174;2023-03-01T16:07:59;26.73;;;12.07;;
50350;SDS011;36250;48.740;22.174;2023-03-01T16:10:25;16.42;;;5.28;;
50350;SDS011;36250;48.740;22.174;2023-03-01T16:12:51;7.30;;;4.70;;
50350;SDS011;36250;48.740;22.174;2023-03-01T16:17:45;6.03;;;4.30;;
50350;SDS011;36250;48.740;22.174;2023-03-01T16:20:11;17.83;;;10.57;;
50350;SDS011;36250;48.740;22.174;2023-03-01T16:22:37;4.82;;;3.70;;
50350;SDS011;36250;48.740;22.174;2023-03-01T16:25:02;10.23;;;6.32;;
50350;SDS011;36250;48.740;22.174;2023-03-01T16:27:28;11.18;;;6.22;;
50350;SDS011;36250;48.740;22.174;2023-03-01T16:29:53;14.48;;;7.25;;
50350;SDS011;36250;48.740;22.174;2023-03-01T16:32:19;22.50;;;12.43;;
50350;SDS011;36250;48.740;22.174;2023-03-01T16:34:44;15.18;;;9.05;;
50350;SDS011;36250;48.740;22.174;2023-03-01T16:37:12;14.63;;;8.10;;
50350;SDS011;36250;48.740;22.174;2023-03-01T16:39:38;9.15;;;5.75;;
50350;SDS011;36250;48.740;22.174;2023-03-01T16:42:03;8.55;;;5.32;;
50350;SDS011;36250;48.740;22.174;2023-03-01T16:44:29;7.68;;;4.43;;
50350;SDS011;36250;48.740;22.174;2023-03-01T16:46:54;9.45;;;6.18;;
50350;SDS011;36250;48.740;22.174;2023-03-01T16:49:19;10.70;;;7.97;;
50350;SDS011;36250;48.740;22.174;2023-03-01T16:51:45;17.17;;;11.13;;
50350;SDS011;36250;48.740;22.174;2023-03-01T16:54:10;16.33;;;11.68;;
50350;SDS011;36250;48.740;22.174;2023-03-01T16:56:35;13.57;;;8.15;;
50350;SDS011;36250;48.740;22.174;2023-03-01T16:59:03;8.38;;;4.82;;
50350;SDS011;36250;48.740;22.174;2023-03-01T17:01:28;5.97;;;3.65;;
50350;SDS011;36250;48.740;22.174;2023-03-01T17:04:02;9.10;;;6.28;;
50350;SDS011;36250;48.740;22.174;2023-03-01T17:06:28;20.30;;;13.43;;
50350;SDS011;36250;48.740;22.174;2023-03-01T17:08:53;25.00;;;14.82;;